createdAt,value
2023-04-24T00:01:35.242Z,56.13
2023-04-24T00:04:21.142Z,57.19
2023-04-24T00:07:07.915Z,57.01
2023-04-24T00:09:53.210Z,56.84
2023-04-24T00:12:39.087Z,56.28
2023-04-24T00:15:24.736Z,56.60
2023-04-24T00:18:09.929Z,56.47
2023-04-24T00:20:55.316Z,56.49
2023-04-24T00:23:40.557Z,56.42
2023-04-24T00:26:26.344Z,56.76
2023-04-24T00:29:12.092Z,56.62
2023-04-24T00:31:57.623Z,56.77
2023-04-24T00:34:43.231Z,57.42
2023-04-24T00:37:28.548Z,57.55
2023-04-24T00:40:13.938Z,57.87
2023-04-24T00:42:59.460Z,58.26
2023-04-24T00:45:44.812Z,59.05
2023-04-24T00:48:31.721Z,59.02
2023-04-24T00:51:17.052Z,59.46
2023-04-24T00:54:02.634Z,59.54
2023-04-24T00:56:48.427Z,59.49
2023-04-24T00:59:33.839Z,59.55
2023-04-24T01:02:19.806Z,59.12
2023-04-24T01:05:06.267Z,59.63
2023-04-24T01:07:51.949Z,60.13
2023-04-24T01:10:38.842Z,59.93
2023-04-24T01:13:25.026Z,60.04
2023-04-24T01:16:11.046Z,60.40
2023-04-24T01:18:56.318Z,60.69
2023-04-24T01:21:44.323Z,60.88
2023-04-24T01:24:30.971Z,61.47
2023-04-24T01:27:16.650Z,61.40
2023-04-24T01:30:05.452Z,61.80
2023-04-24T01:32:52.624Z,61.61
2023-04-24T01:35:39.022Z,61.64
2023-04-24T01:38:24.755Z,61.49
2023-04-24T01:41:10.666Z,61.07
2023-04-24T01:43:56.189Z,60.86
2023-04-24T01:46:42.408Z,61.18
2023-04-24T01:49:28.235Z,60.72
2023-04-24T01:52:13.550Z,60.73
2023-04-24T01:55:01.160Z,60.92
2023-04-24T01:57:46.822Z,61.85
2023-04-24T02:00:32.206Z,62.71
2023-04-24T02:03:18.434Z,62.43
2023-04-24T02:06:04.315Z,62.55
2023-04-24T02:08:50.674Z,63.26
2023-04-24T02:11:36.080Z,62.84
2023-04-24T02:14:21.308Z,62.82
2023-04-24T02:17:07.617Z,63.59
2023-04-24T02:19:55.978Z,63.52
2023-04-24T02:22:41.387Z,63.68
2023-04-24T02:25:26.632Z,64.05
2023-04-24T02:28:14.711Z,63.99
2023-04-24T02:31:00.960Z,63.11
2023-04-24T02:33:46.572Z,64.12
2023-04-24T02:36:32.585Z,64.08
2023-04-24T02:39:17.912Z,64.59
2023-04-24T02:42:03.915Z,65.25
2023-04-24T02:44:49.471Z,64.21
2023-04-24T02:47:35.165Z,63.94
2023-04-24T02:50:21.321Z,63.67
2023-04-24T02:53:06.907Z,63.73
2023-04-24T02:55:52.594Z,63.71
2023-04-24T02:58:37.975Z,63.92
2023-04-24T03:01:23.414Z,63.96
2023-04-24T03:04:08.899Z,63.51
2023-04-24T03:06:55.847Z,63.36
2023-04-24T03:09:42.122Z,63.88
2023-04-24T03:12:27.791Z,63.23
2023-04-24T03:15:14.048Z,63.48
2023-04-24T03:17:59.681Z,63.00
2023-04-24T03:20:47.431Z,62.97
2023-04-24T03:23:33.394Z,62.78
2023-04-24T03:26:18.904Z,63.15
2023-04-24T03:29:17.774Z,63.09
2023-04-24T03:32:03.351Z,64.45
2023-04-24T03:34:50.828Z,65.00
2023-04-24T03:37:36.555Z,65.84
2023-04-24T03:40:42.301Z,66.12
2023-04-24T03:43:46.598Z,65.97
2023-04-24T03:46:31.963Z,66.22
2023-04-24T03:49:19.870Z,66.60
2023-04-24T03:52:06.663Z,67.11
2023-04-24T03:54:52.206Z,67.63
2023-04-24T03:57:37.593Z,67.63
2023-04-24T04:00:33.250Z,67.90
2023-04-24T04:03:39.084Z,67.77
2023-04-24T04:06:24.673Z,67.54
2023-04-24T04:09:12.442Z,67.60
2023-04-24T04:11:57.862Z,67.96
2023-04-24T04:14:43.315Z,68.55
2023-04-24T04:17:28.854Z,68.49
2023-04-24T04:20:14.846Z,68.52
2023-04-24T04:23:01.030Z,68.72
2023-04-24T04:25:59.035Z,68.08
2023-04-24T04:28:54.628Z,68.13
2023-04-24T04:31:41.033Z,67.14
2023-04-24T04:34:30.763Z,66.72
2023-04-24T04:37:16.546Z,66.21
2023-04-24T04:40:25.154Z,65.93
2023-04-24T04:43:17.025Z,66.45
2023-04-24T04:46:09.523Z,66.41
2023-04-24T04:49:22.815Z,66.73
2023-04-24T04:52:08.410Z,66.46
2023-04-24T04:54:54.260Z,66.34
2023-04-24T04:57:42.241Z,66.12
2023-04-24T05:00:28.272Z,66.23
2023-04-24T05:06:12.353Z,65.21
2023-04-24T05:08:59.272Z,64.16
2023-04-24T05:11:52.743Z,63.56
2023-04-24T05:14:38.116Z,62.82
2023-04-24T05:17:23.510Z,61.62
2023-04-24T05:20:11.895Z,60.32
2023-04-24T05:22:58.359Z,59.56
2023-04-24T05:25:45.688Z,58.38
2023-04-24T05:28:32.066Z,57.75
2023-04-24T05:31:25.126Z,56.32
2023-04-24T05:34:11.246Z,55.89
2023-04-24T05:37:01.176Z,55.52
2023-04-24T05:39:46.519Z,54.72
2023-04-24T05:42:33.629Z,54.94
2023-04-24T05:45:19.249Z,53.38
2023-04-24T05:48:06.656Z,53.62
2023-04-24T05:50:53.622Z,50.64
2023-04-24T05:53:39.445Z,51.00
2023-04-24T05:56:26.581Z,50.05
2023-04-24T05:59:12.360Z,50.02
2023-04-24T06:01:57.747Z,50.30
2023-04-24T06:04:43.800Z,49.99
2023-04-24T06:07:29.899Z,49.82
2023-04-24T06:10:16.451Z,49.55
2023-04-24T06:13:03.816Z,49.21
2023-04-24T06:15:51.083Z,49.04
2023-04-24T06:18:41.605Z,49.61
2023-04-24T06:21:28.678Z,48.76
2023-04-24T06:24:17.988Z,48.61
2023-04-24T06:27:03.652Z,48.46
2023-04-24T06:29:55.327Z,48.61
2023-04-24T06:32:40.988Z,48.23
2023-04-24T06:35:27.612Z,47.79
2023-04-24T06:38:13.324Z,48.05
2023-04-24T06:40:59.563Z,48.57
2023-04-24T06:43:45.859Z,48.15
2023-04-24T06:46:31.258Z,47.67
2023-04-24T06:49:17.071Z,47.63
2023-04-24T06:52:02.773Z,47.30
2023-04-24T06:54:48.171Z,47.84
2023-04-24T06:57:33.874Z,48.04
2023-04-24T07:00:19.793Z,47.90
2023-04-24T07:03:08.521Z,48.60
2023-04-24T07:05:55.917Z,48.01
2023-04-24T07:08:43.105Z,47.33
2023-04-24T07:11:30.362Z,46.91
2023-04-24T07:14:16.300Z,47.68
2023-04-24T07:17:02.296Z,46.07
2023-04-24T07:19:47.598Z,46.83
2023-04-24T07:22:32.958Z,46.10
2023-04-24T07:25:18.793Z,45.75
2023-04-24T07:28:05.616Z,46.36
2023-04-24T07:30:51.518Z,45.63
2023-04-24T07:33:37.440Z,46.37
2023-04-24T07:36:22.822Z,45.59
2023-04-24T07:39:09.263Z,44.82
2023-04-24T07:41:54.710Z,45.36
2023-04-24T07:44:40.194Z,45.81
2023-04-24T07:47:25.978Z,44.23
2023-04-24T07:50:11.703Z,44.39
2023-04-24T07:52:57.040Z,44.67
2023-04-24T07:55:42.435Z,44.20
2023-04-24T07:58:28.082Z,44.30
2023-04-24T08:01:14.091Z,44.13
2023-04-24T08:03:59.635Z,44.46
2023-04-24T08:06:45.954Z,43.46
2023-04-24T08:09:31.714Z,43.60
2023-04-24T08:12:17.337Z,43.29
2023-04-24T08:15:02.816Z,43.57
2023-04-24T08:17:48.408Z,43.25
2023-04-24T08:20:34.014Z,43.55
2023-04-24T08:23:19.756Z,43.28
2023-04-24T08:26:06.102Z,42.86
2023-04-24T08:28:52.171Z,42.32
2023-04-24T08:31:37.613Z,42.48
2023-04-24T08:34:23.168Z,41.87
2023-04-24T08:37:08.602Z,41.91
2023-04-24T08:39:55.020Z,41.30
2023-04-24T08:42:43.148Z,41.28
2023-04-24T08:45:29.131Z,40.90
2023-04-24T08:48:23.781Z,40.73
2023-04-24T08:51:13.186Z,41.09
2023-04-24T08:53:59.218Z,40.99
2023-04-24T08:56:46.232Z,40.87
2023-04-24T08:59:32.745Z,40.96
2023-04-24T09:02:19.255Z,41.15
2023-04-24T09:05:07.579Z,40.40
2023-04-24T09:07:57.380Z,40.07
2023-04-24T09:10:43.190Z,39.87
2023-04-24T09:13:29.109Z,39.17
2023-04-24T09:16:15.784Z,38.39
2023-04-24T09:19:01.461Z,38.57
2023-04-24T09:21:47.678Z,38.25
2023-04-24T09:24:36.533Z,37.75
2023-04-24T09:27:24.744Z,38.07
2023-04-24T09:30:10.504Z,37.01
2023-04-24T09:33:14.657Z,38.21
2023-04-24T09:36:00.284Z,36.18
2023-04-24T09:38:46.586Z,35.82
2023-04-24T09:41:34.284Z,35.31
2023-04-24T09:44:22.036Z,35.30
2023-04-24T09:47:10.421Z,35.62
2023-04-24T09:49:59.262Z,35.73
2023-04-24T09:52:59.669Z,35.69
2023-04-24T09:55:49.191Z,35.14
2023-04-24T09:58:37.448Z,33.55
2023-04-24T10:01:33.306Z,32.73
2023-04-24T10:04:25.695Z,32.94
2023-04-24T10:07:11.683Z,34.44
2023-04-24T10:09:57.697Z,33.55
2023-04-24T10:12:44.048Z,33.37
2023-04-24T10:15:29.873Z,33.30
2023-04-24T10:18:17.270Z,33.67
2023-04-24T10:21:03.798Z,31.99
2023-04-24T10:23:50.128Z,32.97
2023-04-24T10:26:36.582Z,32.98
2023-04-24T10:29:23.405Z,33.38
2023-04-24T10:32:10.752Z,32.95
2023-04-24T10:34:57.698Z,32.73
2023-04-24T10:38:08.020Z,33.03
2023-04-24T10:41:07.736Z,32.40
2023-04-24T10:44:09.077Z,33.29
2023-04-24T10:46:56.296Z,33.09
2023-04-24T10:49:42.288Z,33.59
2023-04-24T10:52:45.895Z,31.79
2023-04-24T10:55:46.360Z,30.75
2023-04-24T10:58:45.650Z,29.04
2023-04-24T11:01:34.073Z,31.37
2023-04-24T11:04:31.106Z,31.66
2023-04-24T11:07:17.203Z,32.44
2023-04-24T11:10:03.060Z,30.37
2023-04-24T11:12:48.514Z,29.78
2023-04-24T11:15:34.064Z,29.37
2023-04-24T11:18:19.357Z,31.11
2023-04-24T11:21:13.122Z,31.40
2023-04-24T11:23:59.783Z,30.50
2023-04-24T11:26:46.089Z,30.73
2023-04-24T11:29:58.623Z,31.31
2023-04-24T11:32:44.406Z,33.09
2023-04-24T11:35:29.775Z,32.60
2023-04-24T11:38:24.130Z,30.26
2023-04-24T11:41:11.094Z,30.07
2023-04-24T11:43:58.317Z,30.90
2023-04-24T11:46:43.915Z,30.15
2023-04-24T11:49:29.487Z,30.46
2023-04-24T11:52:17.738Z,30.58
2023-04-24T11:55:03.222Z,30.86
2023-04-24T11:57:51.504Z,31.42
2023-04-24T12:00:37.678Z,30.96
2023-04-24T12:03:23.671Z,30.06
2023-04-24T12:06:11.818Z,30.33
2023-04-24T12:09:07.988Z,30.20
2023-04-24T12:11:58.244Z,30.64
2023-04-24T12:14:55.372Z,29.95
2023-04-24T12:17:44.362Z,29.82
2023-04-24T12:20:34.138Z,30.06
2023-04-24T12:23:39.585Z,29.99
2023-04-24T12:26:26.052Z,29.96
2023-04-24T12:29:11.816Z,29.83
2023-04-24T12:31:57.287Z,30.15
2023-04-24T12:34:44.773Z,30.46
2023-04-24T12:37:35.377Z,30.24
2023-04-24T12:40:23.275Z,28.95
2023-04-24T12:43:15.060Z,29.42
2023-04-24T12:46:00.671Z,29.98
2023-04-24T12:48:46.291Z,30.29
2023-04-24T12:51:31.637Z,28.65
2023-04-24T12:54:17.208Z,28.83
2023-04-24T12:57:02.485Z,29.24
2023-04-24T12:59:47.819Z,28.44
2023-04-24T13:02:33.381Z,29.90
2023-04-24T13:05:18.881Z,29.89
2023-04-24T13:08:04.570Z,29.69
2023-04-24T13:10:50.259Z,29.53
2023-04-24T13:13:35.924Z,28.45
2023-04-24T13:16:21.969Z,28.44
2023-04-24T13:19:07.252Z,28.61
2023-04-24T13:21:53.219Z,29.14
2023-04-24T13:24:41.775Z,28.17
2023-04-24T13:27:27.307Z,28.46
2023-04-24T13:30:12.975Z,27.71
2023-04-24T13:32:58.892Z,28.48
2023-04-24T13:35:44.458Z,27.87
2023-04-24T13:38:30.049Z,28.47
2023-04-24T13:41:15.357Z,29.09
2023-04-24T13:44:00.878Z,29.54
2023-04-24T13:46:48.737Z,29.28
2023-04-24T13:49:34.248Z,28.56
2023-04-24T13:52:19.504Z,29.27
2023-04-24T13:55:05.553Z,28.96
2023-04-24T13:57:50.955Z,29.03
2023-04-24T14:00:36.723Z,27.98
2023-04-24T14:03:22.197Z,27.76
2023-04-24T14:06:09.203Z,27.14
2023-04-24T14:08:54.424Z,26.74
2023-04-24T14:11:40.128Z,26.98
2023-04-24T14:14:28.848Z,27.34
2023-04-24T14:17:16.842Z,27.40
2023-04-24T14:20:06.214Z,27.64
2023-04-24T14:22:54.417Z,27.53
2023-04-24T14:25:40.261Z,27.62
2023-04-24T14:28:27.419Z,28.34
2023-04-24T14:31:13.050Z,27.70
2023-04-24T14:33:58.724Z,27.94
2023-04-24T14:36:45.197Z,27.85
2023-04-24T14:39:31.025Z,27.13
2023-04-24T14:42:18.026Z,26.98
2023-04-24T14:45:03.988Z,25.75
2023-04-24T14:47:49.648Z,26.20
2023-04-24T14:50:35.246Z,26.01
2023-04-24T14:53:21.298Z,25.70
2023-04-24T14:56:07.180Z,26.19
2023-04-24T14:58:53.418Z,26.89
2023-04-24T15:01:38.876Z,27.40
2023-04-24T15:04:28.544Z,27.63
2023-04-24T15:07:13.872Z,28.25
2023-04-24T15:09:59.255Z,27.65
2023-04-24T15:12:45.576Z,28.33
2023-04-24T15:15:30.882Z,28.79
2023-04-24T15:18:16.343Z,28.74
2023-04-24T15:21:01.730Z,28.47
2023-04-24T15:23:49.100Z,28.88
2023-04-24T15:26:35.132Z,28.44
2023-04-24T15:29:20.556Z,29.13
2023-04-24T15:32:08.212Z,29.36
2023-04-24T15:35:07.195Z,29.65
2023-04-24T15:37:53.967Z,29.32
2023-04-24T15:40:39.534Z,29.93
2023-04-24T15:43:24.874Z,30.76
2023-04-24T15:46:11.187Z,31.07
2023-04-24T15:48:56.752Z,30.67
2023-04-24T15:51:43.908Z,30.56
2023-04-24T15:54:30.393Z,30.71
2023-04-24T15:57:16.412Z,31.02
2023-04-24T16:00:04.557Z,31.24
2023-04-24T16:03:07.041Z,31.17
2023-04-24T16:05:55.685Z,31.27
2023-04-24T16:08:41.176Z,31.52
2023-04-24T16:11:26.644Z,31.46
2023-04-24T16:14:12.125Z,31.53
2023-04-24T16:16:57.455Z,32.17
2023-04-24T16:19:43.142Z,33.31
2023-04-24T16:22:28.581Z,34.28
2023-04-24T16:25:14.064Z,36.14
2023-04-24T16:28:00.936Z,36.97
2023-04-24T16:30:50.071Z,37.34
2023-04-24T16:33:36.457Z,38.09
2023-04-24T16:36:22.188Z,38.44
2023-04-24T16:39:07.541Z,38.43
2023-04-24T16:41:54.384Z,38.93
2023-04-24T16:44:40.751Z,39.32
2023-04-24T16:47:26.244Z,39.91
2023-04-24T16:50:12.383Z,40.15
2023-04-24T16:52:57.858Z,40.30
2023-04-24T16:55:44.493Z,40.48
2023-04-24T16:58:29.695Z,40.79
2023-04-24T17:01:15.001Z,41.35
2023-04-24T17:04:00.804Z,40.92
2023-04-24T17:06:46.417Z,41.07
2023-04-24T17:09:31.934Z,41.26
2023-04-24T17:12:17.447Z,41.35
2023-04-24T17:15:02.765Z,41.67
2023-04-24T17:17:49.664Z,41.05
2023-04-24T17:20:34.969Z,41.09
2023-04-24T17:23:20.887Z,41.14
2023-04-24T17:26:06.380Z,41.49
2023-04-24T17:28:54.877Z,41.45
2023-04-24T17:31:40.594Z,41.55
2023-04-24T17:34:26.426Z,41.36
2023-04-24T17:37:11.997Z,41.44
2023-04-24T17:39:57.703Z,41.54
2023-04-24T17:42:43.459Z,41.82
2023-04-24T17:45:28.772Z,41.74
2023-04-24T17:48:14.907Z,41.86
2023-04-24T17:51:00.260Z,41.88
2023-04-24T17:53:46.065Z,42.35
2023-04-24T17:56:31.625Z,42.53
2023-04-24T17:59:17.445Z,42.89
2023-04-24T18:02:03.161Z,43.40
2023-04-24T18:04:48.790Z,42.91
2023-04-24T18:07:34.956Z,42.80
2023-04-24T18:10:20.765Z,42.95
2023-04-24T18:13:06.600Z,43.80
2023-04-24T18:15:52.497Z,43.91
2023-04-24T18:18:38.269Z,44.25
2023-04-24T18:21:25.107Z,44.44
2023-04-24T18:24:10.864Z,44.93
2023-04-24T18:26:58.322Z,45.00
2023-04-24T18:29:44.914Z,44.76
2023-04-24T18:32:30.915Z,44.89
2023-04-24T18:35:37.150Z,45.15
2023-04-24T18:38:22.727Z,45.59
2023-04-24T18:41:08.202Z,46.46
2023-04-24T18:43:53.646Z,46.57
2023-04-24T18:46:41.510Z,46.03
2023-04-24T18:49:27.298Z,46.16
2023-04-24T18:52:12.550Z,46.72
2023-04-24T18:54:58.325Z,46.55
2023-04-24T18:57:55.138Z,46.50
2023-04-24T19:00:44.730Z,46.35
2023-04-24T19:03:32.498Z,46.54
2023-04-24T19:06:18.187Z,46.99
2023-04-24T19:09:04.012Z,47.25
2023-04-24T19:11:58.446Z,47.66
2023-04-24T19:14:47.551Z,48.01
2023-04-24T19:17:33.418Z,48.11
2023-04-24T19:20:19.590Z,48.17
2023-04-24T19:23:06.213Z,48.58
2023-04-24T19:25:51.793Z,49.06
2023-04-24T19:28:39.075Z,49.26
2023-04-24T19:31:25.536Z,48.95
2023-04-24T19:34:10.996Z,49.84
2023-04-24T19:36:56.350Z,49.63
2023-04-24T19:39:42.287Z,49.47
2023-04-24T19:42:42.032Z,49.42
2023-04-24T19:45:28.077Z,49.23
2023-04-24T19:48:13.816Z,49.21
2023-04-24T19:51:01.393Z,49.61
2023-04-24T19:53:47.070Z,49.39
2023-04-24T19:56:32.794Z,49.37
2023-04-24T19:59:18.613Z,49.46
2023-04-24T20:02:04.509Z,49.55
2023-04-24T20:04:50.128Z,49.69
2023-04-24T20:07:36.579Z,49.87
2023-04-24T20:10:23.039Z,49.83
2023-04-24T20:13:08.894Z,49.83
2023-04-24T20:15:54.895Z,49.88
2023-04-24T20:18:40.500Z,50.28
2023-04-24T20:21:26.626Z,50.15
2023-04-24T20:24:12.609Z,50.08
2023-04-24T20:26:58.457Z,49.92
2023-04-24T20:29:43.818Z,49.98
2023-04-24T20:32:29.128Z,50.16
2023-04-24T20:35:14.609Z,50.41
2023-04-24T20:38:01.687Z,50.50
2023-04-24T20:40:57.146Z,50.42
2023-04-24T20:43:43.344Z,50.62
2023-04-24T20:46:29.212Z,50.80
2023-04-24T20:49:14.600Z,51.08
2023-04-24T20:51:59.928Z,51.17
2023-04-24T20:54:46.710Z,51.34
2023-04-24T20:57:32.685Z,51.70
2023-04-24T21:00:18.398Z,51.87
2023-04-24T21:03:05.324Z,52.05
2023-04-24T21:05:51.386Z,52.16
2023-04-24T21:08:37.849Z,52.22
2023-04-24T21:11:23.588Z,52.19
2023-04-24T21:14:09.302Z,52.40
2023-04-24T21:16:57.535Z,52.50
2023-04-24T21:19:43.368Z,52.55
2023-04-24T21:22:28.780Z,52.85
2023-04-24T21:25:14.290Z,52.77
2023-04-24T21:27:59.861Z,53.13
2023-04-24T21:30:45.386Z,53.42
2023-04-24T21:33:30.938Z,53.62
2023-04-24T21:36:16.199Z,53.92
2023-04-24T21:39:01.582Z,54.18
2023-04-24T21:41:47.629Z,54.70
2023-04-24T21:44:33.023Z,54.58
2023-04-24T21:47:18.628Z,54.60
2023-04-24T21:50:05.287Z,54.67
2023-04-24T21:52:51.046Z,54.50
2023-04-24T21:55:36.559Z,54.50
2023-04-24T21:58:21.914Z,54.41
2023-04-24T22:01:07.489Z,54.44
2023-04-24T22:03:53.283Z,54.34
2023-04-24T22:06:39.161Z,54.34
2023-04-24T22:09:24.732Z,54.31
2023-04-24T22:12:10.077Z,54.41
2023-04-24T22:14:56.098Z,54.36
2023-04-24T22:17:42.116Z,54.33
2023-04-24T22:20:28.033Z,54.66
2023-04-24T22:23:13.497Z,54.79
2023-04-24T22:25:58.882Z,54.97
2023-04-24T22:28:45.156Z,55.84
2023-04-24T22:31:31.933Z,57.34
2023-04-24T22:34:17.218Z,57.38
2023-04-24T22:37:02.781Z,57.79
2023-04-24T22:39:47.992Z,57.89
2023-04-24T22:42:33.509Z,57.64
2023-04-24T22:45:19.548Z,58.08
2023-04-24T22:48:05.038Z,57.91
2023-04-24T22:50:52.436Z,57.76
2023-04-24T22:53:37.974Z,57.78
2023-04-24T22:56:23.599Z,58.10
2023-04-24T22:59:09.528Z,58.69
2023-04-24T23:01:58.014Z,58.98
2023-04-24T23:04:43.274Z,59.39
2023-04-24T23:07:29.086Z,59.38
2023-04-24T23:10:14.664Z,59.75
2023-04-24T23:13:00.246Z,59.98
2023-04-24T23:15:45.475Z,60.18
2023-04-24T23:18:31.485Z,60.20
2023-04-24T23:21:17.456Z,60.44
2023-04-24T23:24:02.921Z,60.95
2023-04-24T23:26:48.427Z,61.13
2023-04-24T23:29:33.810Z,61.09
2023-04-24T23:32:19.192Z,61.18
2023-04-24T23:35:05.048Z,61.08
2023-04-24T23:37:50.640Z,61.04
2023-04-24T23:40:36.321Z,61.45
2023-04-24T23:43:22.024Z,61.04
2023-04-24T23:46:07.401Z,61.22
2023-04-24T23:48:52.815Z,61.26
2023-04-24T23:51:38.473Z,61.39
2023-04-24T23:54:24.445Z,61.83
2023-04-24T23:57:10.254Z,62.19
2023-04-24T23:59:55.830Z,62.53
